Terminal Aerodrome Forecast
Issued by NWS

Home | Current Version | Previous Version | Text Only | Print | Product List | Glossary On
Versions: 1 2 3 4 5 6 7 8 9 10 11 12 13 14 15 16 17 18 19 20 21 22 23 24 25 26 27 28 29 30 31 32 33
000
FTUS41 KBOX 020537
TAFBED
TAF
KBED 020537Z 0206/0306 00000KT 6SM BR BKN150
     FM021100 00000KT P6SM -SHRA OVC060
     FM021600 15004KT P6SM -SHRA OVC030
     FM021800 10005KT P6SM OVC030
     FM022100 10006KT P6SM BKN030
     FM022200 10005KT P6SM BKN060
     FM030300 00000KT P6SM BKN060=

USA.gov is the U.S. government's official web portal to all federal, state and local government web resources and services.